Time;durP1;ratioP1;P1;durP2;ratioP2;P2;SDS_P1;SDS_P2;PMS_P1;PMS_P2;Temp;Humidity;BMP_temperature;BMP_pressure;BME280_temperature;BME280_humidity;BME280_pressure;Samples;Min_cycle;Max_cycle;Signal;HPM_P1;HPM_P2
2023/07/17 00:01:27;;;;;;;7.28;4.30;;;;;;;23.77;100.00;101277.44;5053700;28;20021;-74
2023/07/17 00:03:52;;;;;;;5.47;4.20;;;;;;;23.56;100.00;101251.94;5055366;28;20017;-76
2023/07/17 00:06:18;;;;;;;4.80;3.70;;;;;;;23.29;100.00;101200.72;5055860;28;20025;-75
2023/07/17 00:12:05;;;;;;;6.97;4.25;;;;;;;23.52;100.00;101276.41;5055201;28;20028;-73
2023/07/17 00:14:30;;;;;;;4.88;3.97;;;;;;;23.34;100.00;101234.22;5054553;28;20399;-74
2023/07/17 00:16:56;;;;;;;9.38;4.00;;;;;;;23.44;100.00;101297.66;5053915;28;20060;-74
2023/07/17 00:19:21;;;;;;;5.78;3.80;;;;;;;23.64;100.00;101318.09;5055384;28;20021;-74
2023/07/17 00:21:47;;;;;;;7.55;3.78;;;;;;;23.66;100.00;101259.06;5055095;28;20033;-74
2023/07/17 00:27:35;;;;;;;5.38;4.20;;;;;;;23.65;100.00;101260.00;5054708;28;20027;-73
2023/07/17 00:33:22;;;;;;;8.68;3.63;;;;;;;23.44;100.00;101253.53;5054370;28;20071;-73
2023/07/17 00:39:10;;;;;;;6.85;4.40;;;;;;;23.66;100.00;101341.34;5048292;28;20064;-74
2023/07/17 00:41:35;;;;;;;7.22;4.22;;;;;;;23.47;100.00;101276.72;5052906;28;20087;-75
2023/07/17 00:44:01;;;;;;;5.22;4.00;;;;;;;22.68;100.00;101226.06;5053353;28;20029;-76
2023/07/17 00:46:26;;;;;;;7.68;4.30;;;;;;;23.27;100.00;101339.34;5054352;28;20484;-76
2023/07/17 00:52:14;;;;;;;;;;;;;;;23.64;100.00;101345.81;5054608;28;20457;-74
2023/07/17 00:58:01;;;;;;;5.32;4.28;;;;;;;23.35;100.00;101285.25;5054382;28;20039;-75
2023/07/17 01:00:27;;;;;;;5.18;3.88;;;;;;;23.73;100.00;101314.09;5053845;28;20067;-75
2023/07/17 01:02:53;;;;;;;6.43;4.20;;;;;;;23.24;100.00;101297.97;5053335;28;20452;-75
2023/07/17 01:05:19;;;;;;;5.90;4.38;;;;;;;23.31;100.00;101333.09;5053395;28;20032;-75
2023/07/17 01:11:06;;;;;;;5.30;4.80;;;;;;;23.44;100.00;101344.41;5054398;28;20040;-74
2023/07/17 01:13:45;;;;;;;7.05;4.55;;;;;;;23.03;100.00;101274.16;5052310;28;20287;-76
2023/07/17 01:16:11;;;;;;;7.68;4.32;;;;;;;23.46;100.00;101357.28;5053769;28;20036;-75
2023/07/17 01:18:36;;;;;;;5.50;4.53;;;;;;;22.92;100.00;101304.22;5054433;28;20033;-76
2023/07/17 01:21:05;;;;;;;9.55;4.57;;;;;;;22.97;100.00;101335.94;5054355;28;20024;-76
2023/07/17 01:23:31;;;;;;;7.03;4.72;;;;;;;22.77;100.00;101313.72;5054047;28;20056;-73
2023/07/17 01:25:57;;;;;;;9.02;4.90;;;;;;;23.05;100.00;101341.53;5054078;28;20017;-72
2023/07/17 01:28:22;;;;;;;7.97;4.53;;;;;;;22.82;100.00;101339.41;5052015;28;20025;-74
2023/07/17 01:34:10;;;;;;;8.60;5.63;;;;;;;23.10;100.00;101394.81;5053786;28;20066;-75
2023/07/17 01:36:35;;;;;;;11.52;5.63;;;;;;;22.78;100.00;101436.50;5053122;28;20123;-75
2023/07/17 01:39:01;;;;;;;8.85;5.88;;;;;;;22.24;100.00;101386.66;5052951;28;20053;-73
2023/07/17 01:41:27;;;;;;;7.35;5.68;;;;;;;22.35;100.00;101436.16;5051924;28;20471;-73
2023/07/17 01:43:52;;;;;;;8.55;5.50;;;;;;;22.12;100.00;101420.16;5053437;28;20052;-76
2023/07/17 01:46:18;;;;;;;11.70;5.80;;;;;;;22.22;100.00;101471.41;5052365;28;20033;-73
2023/07/17 01:48:43;;;;;;;7.82;5.88;;;;;;;22.12;100.00;101470.25;5053732;28;20441;-74
2023/07/17 01:51:09;;;;;;;11.65;5.93;;;;;;;22.46;100.00;101530.69;5055492;28;20021;-77
2023/07/17 01:53:34;;;;;;;7.80;6.25;;;;;;;22.31;100.00;101524.53;5056863;28;20093;-74
2023/07/17 01:59:22;;;;;;;14.48;7.13;;;;;;;22.15;100.00;101553.00;5053889;28;20118;-74
2023/07/17 02:05:09;;;;;;;15.18;7.72;;;;;;;21.76;100.00;101520.44;5053788;28;20403;-75
2023/07/17 02:10:56;;;;;;;13.25;7.07;;;;;;;21.43;100.00;101554.81;5053030;28;20514;-75
2023/07/17 02:16:43;;;;;;;11.23;6.00;;;;;;;22.10;100.00;101674.19;5052385;28;20036;-75
2023/07/17 02:19:08;;;;;;;9.25;5.95;;;;;;;22.36;100.00;101702.25;5051427;28;20029;-74
2023/07/17 02:21:34;;;;;;;10.30;5.90;;;;;;;22.05;100.00;101632.09;5051332;28;20025;-75
2023/07/17 02:23:59;;;;;;;12.25;5.32;;;;;;;22.04;100.00;101673.66;5052780;28;20115;-74
2023/07/17 02:26:25;;;;;;;9.35;5.60;;;;;;;21.80;100.00;101675.63;5052994;28;20353;-74
2023/07/17 02:32:12;;;;;;;11.38;6.05;;;;;;;22.05;100.00;101733.16;5052842;28;20094;-75
2023/07/17 02:37:59;;;;;;;12.35;5.65;;;;;;;22.13;100.00;101714.66;5052567;28;20027;-72
2023/07/17 02:43:46;;;;;;;9.05;5.85;;;;;;;21.98;100.00;101711.06;5052331;28;20032;-75
2023/07/17 02:49:33;;;;;;;11.98;5.80;;;;;;;22.07;100.00;101739.09;5053001;28;20094;-74
2023/07/17 02:51:59;;;;;;;8.55;5.80;;;;;;;22.05;100.00;101733.16;5052227;28;20029;-74
2023/07/17 02:54:24;;;;;;;10.68;5.78;;;;;;;21.53;100.00;101669.97;5052045;28;20098;-74
2023/07/17 02:56:50;;;;;;;8.30;5.80;;;;;;;21.57;100.00;101691.38;5051880;28;20037;-73
2023/07/17 02:59:15;;;;;;;8.13;6.30;;;;;;;21.39;100.00;101693.03;5051458;28;20032;-73
2023/07/17 03:05:08;;;;;;;9.68;6.50;;;;;;;21.45;100.00;101620.28;5052250;28;20544;-73
2023/07/17 03:10:55;;;;;;;13.40;7.32;;;;;;;21.91;100.00;101688.06;5052460;28;20090;-73
2023/07/17 03:13:20;;;;;;;14.30;8.18;;;;;;;21.76;100.00;101689.63;5050841;28;20076;-75
2023/07/17 03:15:48;;;;;;;15.23;8.65;;;;;;;21.57;100.00;101670.66;5051681;28;20025;-75
2023/07/17 03:18:13;;;;;;;19.88;8.82;;;;;;;21.91;100.00;101729.53;5052253;28;20112;-74
2023/07/17 03:24:01;;;;;;;17.17;9.10;;;;;;;21.59;100.00;101692.13;5052358;28;20028;-75
2023/07/17 03:29:48;;;;;;;19.60;9.35;;;;;;;21.56;100.00;101648.28;5056407;28;20104;-75
2023/07/17 03:35:34;;;;;;;31.40;13.50;;;;;;;21.99;100.00;101710.13;5056109;28;20067;-74
2023/07/17 03:38:00;;;;;;;37.33;17.30;;;;;;;21.47;100.00;101628.00;5055618;28;20370;-76
2023/07/17 03:40:25;;;;;;;41.30;18.73;;;;;;;21.91;100.00;101677.72;5056447;28;20016;-78
2023/07/17 03:42:51;;;;;;;33.85;17.83;;;;;;;21.63;100.00;101666.97;5056160;28;20446;-75
2023/07/17 03:48:38;;;;;;;35.00;13.38;;;;;;;22.17;100.00;101617.69;5056244;28;20035;-79
2023/07/17 03:54:25;;;;;;;25.27;10.63;;;;;;;21.58;100.00;101512.66;5055817;28;20127;-75
2023/07/17 03:56:51;;;;;;;19.40;10.57;;;;;;;22.85;100.00;101567.53;5055156;28;20116;-72
2023/07/17 03:59:24;;;;;;;21.92;10.05;;;;;;;21.78;100.00;101497.91;5055402;28;20029;-73
2023/07/17 04:01:50;;;;;;;23.15;10.23;;;;;;;22.15;100.00;101594.47;5053930;28;20029;-74
2023/07/17 04:07:37;;;;;;;17.08;8.88;;;;;;;22.12;100.00;101579.09;5055083;28;20548;-74
2023/07/17 04:13:24;;;;;;;20.20;9.45;;;;;;;22.40;100.00;101586.31;5055122;28;20039;-73
2023/07/17 04:19:11;;;;;;;9.95;6.60;;;;;;;22.24;100.00;101596.56;5055031;28;20071;-73
2023/07/17 04:21:36;;;;;;;10.27;6.43;;;;;;;22.53;100.00;101557.97;5054043;28;20032;-73
2023/07/17 04:24:02;;;;;;;9.82;6.03;;;;;;;22.97;100.00;101601.44;5054760;28;20064;-73
2023/07/17 04:26:27;;;;;;;10.93;6.00;;;;;;;23.15;100.00;101586.66;5053765;28;20028;-73
2023/07/17 04:28:52;;;;;;;11.13;5.53;;;;;;;22.95;100.00;101545.34;5053878;28;20029;-73
2023/07/17 04:34:39;;;;;;;9.38;5.68;;;;;;;22.63;100.00;101481.41;5054238;28;20112;-70
2023/07/17 04:37:05;;;;;;;14.65;5.70;;;;;;;23.43;100.00;101565.22;5054093;28;20025;-71
2023/07/17 04:39:30;;;;;;;10.75;6.30;;;;;;;23.04;100.00;101464.41;5053036;28;20086;-71
2023/07/17 04:41:56;;;;;;;9.40;6.90;;;;;;;23.23;100.00;101465.06;5053972;28;20024;-72
2023/07/17 04:47:43;;;;;;;13.88;6.63;;;;;;;24.15;100.00;101506.44;5054218;28;20100;-74
2023/07/17 04:50:09;;;;;;;11.43;7.72;;;;;;;23.97;100.00;101492.75;5053717;28;20512;-75
2023/07/17 04:52:34;;;;;;;12.25;7.03;;;;;;;23.98;100.00;101493.59;5054588;28;20462;-74
2023/07/17 04:54:59;;;;;;;13.48;6.15;;;;;;;24.00;100.00;101456.19;5052220;28;20170;-74
2023/07/17 04:57:25;;;;;;;16.98;6.95;;;;;;;24.19;100.00;101465.47;5052748;28;20088;-74
2023/07/17 04:59:50;;;;;;;14.85;6.90;;;;;;;24.57;100.00;101487.38;5052564;28;20025;-73
2023/07/17 05:02:16;;;;;;;12.00;6.70;;;;;;;24.46;100.00;101430.00;5053496;28;20043;-74
2023/07/17 05:04:41;;;;;;;16.23;7.25;;;;;;;24.50;100.00;101481.72;5052469;28;20506;-74
2023/07/17 05:07:06;;;;;;;19.75;7.25;;;;;;;24.30;100.00;101421.47;5052258;28;20036;-74
2023/07/17 05:12:54;;;;;;;;;;;;;;;25.09;100.00;101458.94;5056039;28;20048;-74
2023/07/17 05:18:41;;;;;;;19.85;8.02;;;;;;;25.30;100.00;101415.88;5054156;28;20075;-76
2023/07/17 05:24:28;;;;;;;17.73;6.82;;;;;;;25.74;100.00;101380.72;5053956;28;20175;-74
2023/07/17 05:30:15;;;;;;;11.38;5.85;;;;;;;26.13;100.00;101319.75;5053848;28;20554;-75
2023/07/17 05:32:40;;;;;;;10.30;6.30;;;;;;;25.97;100.00;101259.19;5052966;28;20060;-74
2023/07/17 05:35:06;;;;;;;9.32;5.90;;;;;;;26.46;100.00;101306.91;5052720;28;20441;-74
2023/07/17 05:37:31;;;;;;;8.85;5.35;;;;;;;26.24;100.00;101232.94;5052098;28;20028;-75
2023/07/17 05:39:57;;;;;;;7.22;4.93;;;;;;;26.31;100.00;101288.91;5051488;28;20414;-74
2023/07/17 05:45:44;;;;;;;8.90;5.15;;;;;;;26.97;100.00;101247.44;5053470;28;20411;-73
2023/07/17 05:51:31;;;;;;;8.43;4.38;;;;;;;26.26;100.00;101244.09;5053112;28;20031;-75
2023/07/17 05:57:18;;;;;;;6.85;4.25;;;;;;;27.17;100.00;101225.00;5053405;28;20044;-75
2023/07/17 06:03:05;;;;;;;10.38;4.45;;;;;;;27.95;100.00;101257.22;5053556;28;20083;-73
2023/07/17 06:05:36;;;;;;;11.20;3.95;;;;;;;27.98;100.00;101223.78;5052825;28;20024;-73
2023/07/17 06:08:01;;;;;;;11.18;4.43;;;;;;;27.91;100.00;101187.75;5051466;28;20468;-73
2023/07/17 06:10:29;;;;;;;13.82;5.00;;;;;;;27.96;100.00;101167.31;5051024;28;20033;-73
2023/07/17 06:12:54;;;;;;;16.42;5.80;;;;;;;27.15;100.00;101099.75;5052549;28;20170;-74
2023/07/17 06:18:41;;;;;;;;;;;;;;;28.19;100.00;101125.22;5053216;28;20032;-74
2023/07/17 06:21:07;;;;;;;10.10;4.88;;;;;;;27.78;100.00;101053.72;5052160;28;20329;-74
2023/07/17 06:23:32;;;;;;;6.75;4.40;;;;;;;28.47;100.00;101096.72;5052687;28;20055;-73
2023/07/17 06:25:57;;;;;;;5.05;4.32;;;;;;;28.16;100.00;101070.53;5052769;28;20087;-76
2023/07/17 06:31:45;;;;;;;;;;;;;;;28.65;100.00;101053.31;5053077;28;20046;-75
2023/07/17 06:34:11;;;;;;;8.63;4.38;;;;;;;28.82;100.00;101000.31;5050691;28;19947;-75
2023/07/17 06:36:36;;;;;;;7.82;4.75;;;;;;;29.17;100.00;101015.56;5051964;28;20573;-74
2023/07/17 06:39:02;;;;;;;8.18;4.40;;;;;;;28.94;100.00;100950.28;5050602;28;20140;-73
2023/07/17 06:41:27;;;;;;;7.50;4.95;;;;;;;27.95;100.00;100961.66;5051540;28;20044;-74
2023/07/17 06:43:53;;;;;;;8.13;5.90;;;;;;;27.73;100.00;100935.63;5052003;28;20484;-75
2023/07/17 06:46:18;;;;;;;7.40;5.05;;;;;;;29.05;100.00;100959.81;5051641;28;20534;-74
2023/07/17 06:48:44;;;;;;;9.98;5.30;;;;;;;28.34;100.00;100895.44;5050404;28;20033;-75
2023/07/17 06:54:31;;;;;;;10.65;6.40;;;;;;;28.84;100.00;100904.91;5052105;28;20111;-73
2023/07/17 06:56:56;;;;;;;10.88;7.13;;;;;;;29.69;100.00;100834.19;5051551;28;20033;-73
2023/07/17 06:59:25;;;;;;;8.20;6.57;;;;;;;29.65;100.00;100891.31;5050852;28;20017;-72
2023/07/17 07:01:52;;;;;;;9.27;6.32;;;;;;;29.55;100.00;100882.69;5050908;28;20033;-73
2023/07/17 07:07:40;;;;;;;7.47;6.30;;;;;;;30.04;100.00;100867.59;5056225;28;20090;-74
2023/07/17 07:13:29;;;;;;;8.35;6.60;;;;;;;30.36;100.00;100865.38;5056210;28;20167;-74
2023/07/17 07:19:16;;;;;;;;;;;;;;;29.92;100.00;100852.06;5056522;28;20112;-73
2023/07/17 07:25:03;;;;;;;7.32;6.30;;;;;;;30.64;100.00;100864.38;5055798;28;20054;-75
2023/07/17 07:27:31;;;;;;;10.30;6.35;;;;;;;30.97;100.00;100861.06;5054957;28;20025;-75
2023/07/17 07:29:56;;;;;;;9.32;6.90;;;;;;;30.80;100.00;100840.88;5055998;28;20028;-74
2023/07/17 07:32:22;;;;;;;8.70;7.57;;;;;;;29.19;100.00;100817.09;5055434;28;20459;-73
2023/07/17 07:38:08;;;;;;;8.27;7.40;;;;;;;31.01;100.00;100798.50;5055428;28;20051;-74
2023/07/17 07:40:34;;;;;;;11.38;6.90;;;;;;;31.15;100.00;100811.09;5053692;28;20041;-74
2023/07/17 07:42:59;;;;;;;11.38;7.68;;;;;;;31.35;100.00;100778.34;5054241;28;20059;-74
2023/07/17 07:45:25;;;;;;;9.90;7.30;;;;;;;32.13;100.00;100835.94;5054948;28;20086;-74
2023/07/17 07:47:50;;;;;;;10.15;7.03;;;;;;;30.94;100.00;100734.44;5053982;28;20029;-74
2023/07/17 07:53:37;;;;;;;;;;;;;;;31.83;100.00;100825.97;5055834;28;20094;-74
2023/07/17 07:59:24;;;;;;;10.13;6.72;;;;;;;31.73;100.00;100825.25;5055046;28;20316;-74
2023/07/17 08:01:49;;;;;;;7.95;6.28;;;;;;;31.07;100.00;100767.19;5055024;28;20500;-73
2023/07/17 08:04:14;;;;;;;10.10;6.63;;;;;;;31.21;100.00;100828.88;5052862;28;20025;-73
2023/07/17 08:06:40;;;;;;;6.53;5.90;;;;;;;31.68;100.00;100793.31;5053428;28;20545;-74
2023/07/17 08:09:05;;;;;;;8.85;6.00;;;;;;;30.84;100.00;100760.81;5052625;28;20132;-73
2023/07/17 08:14:53;;;;;;;6.80;6.15;;;;;;;32.64;100.00;100808.59;5053280;28;20468;-74
2023/07/17 08:20:40;;;;;;;10.52;7.00;;;;;;;31.64;100.00;100813.03;5054714;28;20047;-74
2023/07/17 08:26:27;;;;;;;8.20;6.60;;;;;;;32.49;100.00;100798.88;5055737;28;20402;-75
2023/07/17 08:32:14;;;;;;;8.82;6.63;;;;;;;32.54;100.00;100792.13;5054831;28;20114;-75
2023/07/17 08:34:39;;;;;;;9.52;6.47;;;;;;;32.16;100.00;100804.03;5053281;28;20111;-76
2023/07/17 08:37:05;;;;;;;7.88;6.55;;;;;;;32.45;100.00;100763.31;5054603;28;20032;-75
2023/07/17 08:39:30;;;;;;;10.73;6.60;;;;;;;33.08;100.00;100830.19;5053137;28;20406;-75
2023/07/17 08:45:21;;;;;;;7.13;6.43;;;;;;;33.43;100.00;100823.66;5054383;28;20553;-74
2023/07/17 08:47:49;;;;;;;9.90;6.30;;;;;;;33.40;100.00;100774.69;5054117;28;20031;-74
2023/07/17 08:50:15;;;;;;;7.57;6.20;;;;;;;33.58;100.00;100824.63;5053865;28;20067;-74
2023/07/17 08:52:41;;;;;;;7.30;6.43;;;;;;;33.59;100.00;100821.84;5053843;28;20025;-73
2023/07/17 08:55:07;;;;;;;8.65;6.43;;;;;;;33.38;100.00;100815.44;5052382;28;20507;-74
2023/07/17 08:57:34;;;;;;;8.75;6.28;;;;;;;32.84;100.00;100765.06;5053493;28;20025;-74
2023/07/17 09:00:00;;;;;;;11.90;8.93;;;;;;;33.33;100.00;100786.94;5052616;28;20040;-74
2023/07/17 09:02:27;;;;;;;9.05;7.07;;;;;;;33.28;100.00;100824.34;5051807;28;20116;-73
2023/07/17 09:08:16;;;;;;;6.72;6.03;;;;;;;33.09;100.00;100745.63;5053934;28;20505;-74
2023/07/17 09:14:07;;;;;;;7.57;6.82;;;;;;;33.32;100.00;100811.66;5053979;28;20043;-74
2023/07/17 09:20:07;;;;;;;8.57;6.70;;;;;;;33.78;100.00;100831.16;5053845;28;20039;-74
2023/07/17 09:22:32;;;;;;;8.38;6.55;;;;;;;33.38;100.00;100758.22;5052170;28;20383;-73
2023/07/17 09:24:58;;;;;;;9.20;7.00;;;;;;;34.43;100.00;100818.44;5051439;28;20028;-75
2023/07/17 09:30:59;;;;;;;8.20;6.78;;;;;;;34.36;100.00;100731.13;5053778;28;20074;-74
2023/07/17 09:33:25;;;;;;;7.50;6.73;;;;;;;33.70;100.00;100747.56;5052796;28;20071;-74
2023/07/17 09:35:55;;;;;;;9.23;6.50;;;;;;;34.40;100.00;100774.69;5053301;28;20056;-77
2023/07/17 09:41:55;;;;;;;9.73;6.80;;;;;;;34.73;100.00;100741.72;5043783;28;20032;-73
2023/07/17 09:44:20;;;;;;;9.80;6.53;;;;;;;33.80;100.00;100732.31;5052745;28;20045;-73
2023/07/17 09:46:48;;;;;;;9.38;6.53;;;;;;;34.26;100.00;100735.84;5051823;28;20021;-75
2023/07/17 09:49:14;;;;;;;9.00;6.85;;;;;;;34.21;100.00;100796.28;5053296;28;20032;-73
2023/07/17 09:51:40;;;;;;;11.70;6.80;;;;;;;34.72;100.00;100805.34;5052624;28;20021;-73
2023/07/17 09:54:06;;;;;;;8.20;6.88;;;;;;;34.24;100.00;100785.38;5052998;28;20032;-72
2023/07/17 09:56:33;;;;;;;8.80;6.90;;;;;;;33.96;100.00;100737.50;5051485;28;20395;-72
2023/07/17 10:02:23;;;;;;;11.43;6.45;;;;;;;35.17;100.00;100733.84;5052587;28;20031;-74
2023/07/17 10:08:36;;;;;;;7.88;6.85;;;;;;;34.56;100.00;100707.69;5052529;28;20044;-72
2023/07/17 10:11:01;;;;;;;9.98;7.00;;;;;;;35.47;100.00;100755.84;5052485;28;20447;-73
2023/07/17 10:13:27;;;;;;;7.05;6.35;;;;;;;33.73;100.00;100712.06;5051164;28;20039;-73
2023/07/17 10:15:52;;;;;;;10.18;6.60;;;;;;;34.55;100.00;100756.25;5051090;28;20033;-73
2023/07/17 10:21:57;;;;;;;11.13;6.75;;;;;;;35.56;100.00;100767.97;5052643;28;20106;-74
2023/07/17 10:24:24;;;;;;;8.20;7.18;;;;;;;34.56;100.00;100705.06;5052590;28;20067;-75
2023/07/17 10:26:49;;;;;;;9.35;6.55;;;;;;;35.06;100.00;100752.84;5051987;28;20072;-74
2023/07/17 10:29:15;;;;;;;8.15;6.80;;;;;;;35.35;100.00;100755.47;5050947;28;20116;-74
2023/07/17 10:31:49;;;;;;;10.25;6.95;;;;;;;36.58;100.00;100774.78;5050950;28;20013;-73
2023/07/17 10:34:15;;;;;;;8.98;6.47;;;;;;;36.26;100.00;100782.25;5052942;28;20021;-73
2023/07/17 10:36:42;;;;;;;8.30;6.45;;;;;;;34.77;100.00;100698.06;5050284;28;20032;-73
2023/07/17 10:42:31;;;;;;;8.70;6.57;;;;;;;35.64;100.00;100717.56;5045008;28;20051;-73
2023/07/17 10:45:07;;;;;;;11.80;6.85;;;;;;;35.19;100.00;100709.84;5051603;28;20037;-72
2023/07/17 10:47:33;;;;;;;10.00;6.90;;;;;;;35.16;100.00;100742.78;5052012;28;20017;-74
2023/07/17 10:50:05;;;;;;;7.55;6.72;;;;;;;35.29;100.00;100684.75;5050407;28;20116;-72
2023/07/17 10:52:36;;;;;;;8.18;6.68;;;;;;;35.36;100.00;100725.34;5051589;28;20041;-73
2023/07/17 10:55:04;;;;;;;10.98;6.60;;;;;;;35.36;100.00;100676.91;5052026;28;20021;-73
2023/07/17 10:57:29;;;;;;;8.13;6.70;;;;;;;35.29;100.00;100708.56;5050759;28;20451;-74
2023/07/17 11:03:17;;;;;;;11.23;6.35;;;;;;;35.86;100.00;100736.94;5052008;28;20036;-72
2023/07/17 11:05:45;;;;;;;8.93;6.47;;;;;;;35.46;100.00;100723.25;5051880;28;20029;-72
2023/07/17 11:08:12;;;;;;;7.97;6.38;;;;;;;35.67;100.00;100711.91;5051056;28;20065;-73
2023/07/17 11:10:41;;;;;;;7.38;6.55;;;;;;;35.47;100.00;100673.78;5051633;28;20533;-72
2023/07/17 11:16:28;;;;;;;7.60;6.22;;;;;;;35.50;100.00;100682.16;5052204;28;20086;-73
2023/07/17 11:18:55;;;;;;;11.05;6.45;;;;;;;36.08;100.00;100735.97;5051399;28;20029;-72
2023/07/17 11:21:26;;;;;;;7.75;6.65;;;;;;;36.20;100.00;100737.94;5051757;28;20021;-73
2023/07/17 11:23:56;;;;;;;7.07;6.38;;;;;;;34.30;100.00;100609.50;5051622;28;20063;-72
2023/07/17 11:29:44;;;;;;;7.97;6.53;;;;;;;35.53;100.00;100700.34;5051955;28;20043;-74
2023/07/17 11:32:11;;;;;;;8.13;6.30;;;;;;;35.36;100.00;100655.72;5051190;28;20025;-72
2023/07/17 11:34:36;;;;;;;9.35;5.90;;;;;;;35.98;100.00;100717.75;5050223;28;20021;-72
2023/07/17 11:37:03;;;;;;;9.80;6.10;;;;;;;35.68;100.00;100703.75;5051067;28;20028;-72
2023/07/17 11:39:31;;;;;;;8.02;5.38;;;;;;;36.06;100.00;100671.75;5050404;28;20106;-73
2023/07/17 11:41:58;;;;;;;10.65;6.00;;;;;;;36.11;100.00;100669.38;5051772;28;20052;-73
2023/07/17 11:44:26;;;;;;;7.10;6.07;;;;;;;35.77;100.00;100701.81;5051757;28;20025;-73
2023/07/17 11:47:01;;;;;;;6.60;5.90;;;;;;;36.48;100.00;100711.50;5051613;28;20025;-72
2023/07/17 11:52:48;;;;;;;7.32;6.22;;;;;;;36.02;100.00;100618.34;5055382;28;20044;-72
2023/07/17 11:55:18;;;;;;;8.15;5.65;;;;;;;35.90;100.00;100659.56;5054966;28;20025;-73
2023/07/17 11:57:52;;;;;;;;;;;;;;;36.50;100.00;100701.53;5055604;28;20025;-73
2023/07/17 12:00:18;;;;;;;7.00;6.30;;;;;;;36.19;100.00;100661.28;5053203;28;19917;-73
2023/07/17 12:02:44;;;;;;;7.30;5.65;;;;;;;36.40;100.00;100658.63;5055030;28;20536;-73
2023/07/17 12:05:09;;;;;;;8.82;6.20;;;;;;;36.36;100.00;100652.03;5053569;28;20115;-73
2023/07/17 12:07:35;;;;;;;8.95;5.97;;;;;;;36.24;100.00;100651.75;5054496;28;20025;-74
2023/07/17 12:10:00;;;;;;;8.25;6.30;;;;;;;35.46;100.00;100592.75;5053469;28;20029;-73
2023/07/17 12:12:26;;;;;;;8.48;6.25;;;;;;;36.33;100.00;100687.69;5054989;28;20077;-73
2023/07/17 12:14:51;;;;;;;7.60;6.00;;;;;;;36.37;100.00;100651.03;5052796;28;20471;-73
2023/07/17 12:17:17;;;;;;;7.88;5.97;;;;;;;37.00;100.00;100692.47;5053456;28;20467;-73
2023/07/17 12:19:42;;;;;;;9.43;6.10;;;;;;;36.97;100.00;100688.38;5054273;28;20056;-72
2023/07/17 12:25:30;;;;;;;9.82;6.05;;;;;;;35.80;100.00;100618.50;5054622;28;20510;-73
2023/07/17 12:27:59;;;;;;;8.45;6.10;;;;;;;36.53;100.00;100629.53;5052910;28;20033;-73
2023/07/17 12:30:25;;;;;;;7.07;5.65;;;;;;;35.76;100.00;100657.81;5054081;28;20025;-73
2023/07/17 12:32:50;;;;;;;8.07;6.18;;;;;;;36.58;100.00;100668.72;5053458;28;20048;-73
2023/07/17 12:38:38;;;;;;;9.73;6.10;;;;;;;35.92;100.00;100654.94;5054882;28;20059;-75
2023/07/17 12:44:24;;;;;;;6.97;6.20;;;;;;;36.52;100.00;100663.22;5042641;28;20048;-73
2023/07/17 12:46:50;;;;;;;10.30;6.13;;;;;;;37.32;100.00;100650.16;5053983;28;20033;-73
2023/07/17 12:49:15;;;;;;;8.35;6.18;;;;;;;36.05;100.00;100601.25;5053674;28;20040;-73
2023/07/17 12:51:41;;;;;;;7.35;6.30;;;;;;;35.69;100.00;100623.34;5052134;28;20124;-73
2023/07/17 12:54:07;;;;;;;6.95;5.78;;;;;;;36.17;100.00;100605.81;5052859;28;20056;-73
2023/07/17 12:59:54;;;;;;;8.57;6.35;;;;;;;36.55;100.00;100643.41;5053767;28;20076;-74
2023/07/17 13:05:41;;;;;;;8.82;6.40;;;;;;;36.86;100.00;100638.53;5054126;28;20120;-73
2023/07/17 13:11:28;;;;;;;10.80;6.47;;;;;;;36.65;100.00;100600.66;5053845;28;20152;-74
2023/07/17 13:13:53;;;;;;;8.20;6.65;;;;;;;36.79;100.00;100631.50;5053344;28;20391;-73
2023/07/17 13:16:18;;;;;;;9.88;6.72;;;;;;;37.64;100.00;100669.06;5053294;28;20033;-74
2023/07/17 13:18:44;;;;;;;8.18;7.18;;;;;;;36.93;100.00;100636.72;5052238;28;20040;-74
2023/07/17 13:24:31;;;;;;;9.63;7.47;;;;;;;36.95;100.00;100632.03;5053494;28;20036;-74
2023/07/17 13:26:56;;;;;;;11.07;7.63;;;;;;;36.99;100.00;100606.75;5053377;28;20025;-73
2023/07/17 13:29:22;;;;;;;9.40;7.55;;;;;;;36.74;100.00;100616.22;5051860;28;20060;-73
2023/07/17 13:31:47;;;;;;;7.57;6.88;;;;;;;36.42;100.00;100579.72;5053294;28;20021;-73
2023/07/17 13:34:13;;;;;;;12.15;7.10;;;;;;;36.65;100.00;100584.75;5052124;28;20028;-73
2023/07/17 13:36:38;;;;;;;10.07;7.30;;;;;;;36.60;100.00;100611.84;5053091;28;20029;-74
2023/07/17 13:39:04;;;;;;;10.52;7.10;;;;;;;37.51;100.00;100637.16;5053100;28;20032;-73
2023/07/17 13:44:51;;;;;;;10.93;6.88;;;;;;;37.34;100.00;100592.38;5042251;28;20064;-74
2023/07/17 13:47:17;;;;;;;9.73;7.38;;;;;;;36.81;100.00;100606.44;5051445;28;20037;-73
2023/07/17 13:49:42;;;;;;;8.35;7.35;;;;;;;35.95;100.00;100556.56;5052840;28;20453;-73
2023/07/17 13:55:29;;;;;;;8.30;6.97;;;;;;;36.28;100.00;100533.75;5053066;28;20036;-72
2023/07/17 13:57:54;;;;;;;8.95;6.78;;;;;;;35.80;100.00;100536.44;5052494;28;20025;-73
2023/07/17 14:00:21;;;;;;;7.68;7.03;;;;;;;36.18;100.00;100588.91;5052416;28;20411;-73
2023/07/17 14:02:47;;;;;;;9.52;7.63;;;;;;;36.58;100.00;100592.66;5052901;28;20063;-73
2023/07/17 14:05:12;;;;;;;12.23;7.78;;;;;;;36.99;100.00;100569.59;5052963;28;20056;-72
2023/07/17 14:07:38;;;;;;;9.35;7.20;;;;;;;37.08;100.00;100551.69;5052312;28;20021;-73
2023/07/17 14:10:03;;;;;;;9.50;7.28;;;;;;;37.01;100.00;100551.66;5052778;28;20028;-73
2023/07/17 14:12:29;;;;;;;10.02;7.75;;;;;;;37.35;100.00;100580.75;5050031;28;20395;-72
2023/07/17 14:14:54;;;;;;;7.95;7.15;;;;;;;37.18;100.00;100599.88;5052256;28;20086;-74
2023/07/17 14:17:20;;;;;;;8.32;7.50;;;;;;;37.43;100.00;100601.00;5051734;28;20035;-73
2023/07/17 14:19:45;;;;;;;9.02;7.45;;;;;;;36.54;100.00;100538.41;5051311;28;20387;-74
2023/07/17 14:22:10;;;;;;;8.10;7.18;;;;;;;36.93;100.00;100549.19;5051097;28;20090;-74
2023/07/17 14:28:11;;;;;;;10.65;7.85;;;;;;;36.78;100.00;100537.88;5053095;28;20060;-74
2023/07/17 14:30:37;;;;;;;8.45;7.35;;;;;;;37.02;100.00;100525.94;5052709;28;20029;-73
2023/07/17 14:33:03;;;;;;;9.68;7.43;;;;;;;37.36;100.00;100566.47;5051600;28;20035;-74
2023/07/17 14:35:28;;;;;;;9.77;7.40;;;;;;;36.09;100.00;100496.53;5051207;28;20029;-73
2023/07/17 14:41:15;;;;;;;8.27;7.47;;;;;;;36.84;100.00;100555.66;5052242;28;20094;-71
2023/07/17 14:43:41;;;;;;;9.45;7.40;;;;;;;36.08;100.00;100524.84;5052210;28;20020;-72
2023/07/17 14:49:28;;;;;;;12.70;7.53;;;;;;;35.75;100.00;100544.97;5052254;28;20039;-71
2023/07/17 14:55:15;;;;;;;9.55;7.25;;;;;;;35.73;100.00;100492.19;5052320;28;20094;-71
2023/07/17 15:01:02;;;;;;;11.25;7.72;;;;;;;36.40;100.00;100502.22;5052613;28;20035;-72
2023/07/17 15:03:28;;;;;;;8.50;7.28;;;;;;;35.86;100.00;100485.34;5051961;28;20029;-72
2023/07/17 15:05:53;;;;;;;8.68;7.40;;;;;;;36.49;100.00;100530.19;5051626;28;20032;-72
2023/07/17 15:08:18;;;;;;;13.43;7.05;;;;;;;36.45;100.00;100524.47;5050418;28;20061;-71
2023/07/17 15:10:44;;;;;;;11.07;7.38;;;;;;;36.25;100.00;100497.03;5051868;28;20048;-72
2023/07/17 15:16:31;;;;;;;8.32;7.45;;;;;;;35.98;100.00;100516.44;5051990;28;20094;-74
2023/07/17 15:22:18;;;;;;;9.73;8.13;;;;;;;35.91;100.00;100472.34;5052342;28;20126;-76
2023/07/17 15:28:05;;;;;;;10.30;8.32;;;;;;;35.95;100.00;100523.97;5055716;28;20036;-72
2023/07/17 15:33:55;;;;;;;8.82;7.93;;;;;;;36.05;100.00;100541.16;5055577;28;20044;-72
2023/07/17 15:36:21;;;;;;;9.80;8.25;;;;;;;35.41;100.00;100531.59;5055587;28;20028;-72
2023/07/17 15:38:47;;;;;;;10.20;8.00;;;;;;;35.12;100.00;100461.09;5055618;28;20107;-72
2023/07/17 15:41:14;;;;;;;11.02;7.88;;;;;;;36.26;100.00;100540.25;5053716;28;20045;-71
2023/07/17 15:47:02;;;;;;;9.85;8.20;;;;;;;36.43;100.00;100554.84;5043856;28;20082;-72
2023/07/17 15:49:27;;;;;;;9.57;8.18;;;;;;;35.72;100.00;100490.56;5053962;28;20028;-68
2023/07/17 15:51:53;;;;;;;12.30;8.30;;;;;;;35.93;100.00;100523.34;5054854;28;20056;-72